sensor_id;sensor_type;location;lat;lon;timestamp;temperature;humidity
52509;DHT22;38420;53.150;6.370;2023-08-08T00:02:15;14.40;99.90
52509;DHT22;38420;53.150;6.370;2023-08-08T00:04:41;14.50;99.90
52509;DHT22;38420;53.150;6.370;2023-08-08T00:07:06;14.60;99.90
52509;DHT22;38420;53.150;6.370;2023-08-08T00:09:32;12.90;99.90
52509;DHT22;38420;53.150;6.370;2023-08-08T00:11:58;13.70;99.90
52509;DHT22;38420;53.150;6.370;2023-08-08T00:14:24;14.30;99.90
52509;DHT22;38420;53.150;6.370;2023-08-08T00:16:50;12.70;99.90
52509;DHT22;38420;53.150;6.370;2023-08-08T00:19:15;13.30;99.90
52509;DHT22;38420;53.150;6.370;2023-08-08T00:21:41;14.10;99.90
52509;DHT22;38420;53.150;6.370;2023-08-08T00:24:07;14.60;99.90
52509;DHT22;38420;53.150;6.370;2023-08-08T00:26:32;13.00;99.90
52509;DHT22;38420;53.150;6.370;2023-08-08T00:28:58;13.20;99.90
52509;DHT22;38420;53.150;6.370;2023-08-08T00:31:24;14.50;99.90
52509;DHT22;38420;53.150;6.370;2023-08-08T00:33:49;14.60;99.90
52509;DHT22;38420;53.150;6.370;2023-08-08T00:36:15;13.90;99.90
52509;DHT22;38420;53.150;6.370;2023-08-08T00:38:40;14.50;99.90
52509;DHT22;38420;53.150;6.370;2023-08-08T00:41:06;14.50;99.90
52509;DHT22;38420;53.150;6.370;2023-08-08T00:43:32;13.00;99.90
52509;DHT22;38420;53.150;6.370;2023-08-08T00:45:57;13.40;99.90
52509;DHT22;38420;53.150;6.370;2023-08-08T00:48:23;14.70;99.90
52509;DHT22;38420;53.150;6.370;2023-08-08T00:50:50;14.40;99.90
52509;DHT22;38420;53.150;6.370;2023-08-08T00:53:18;13.80;99.90
52509;DHT22;38420;53.150;6.370;2023-08-08T00:55:45;14.10;99.90
52509;DHT22;38420;53.150;6.370;2023-08-08T00:58:12;13.10;99.90
52509;DHT22;38420;53.150;6.370;2023-08-08T01:00:37;13.30;99.90
52509;DHT22;38420;53.150;6.370;2023-08-08T01:03:03;13.10;99.90
52509;DHT22;38420;53.150;6.370;2023-08-08T01:05:35;13.20;99.90
52509;DHT22;38420;53.150;6.370;2023-08-08T01:08:05;13.00;99.90
52509;DHT22;38420;53.150;6.370;2023-08-08T01:10:34;14.30;99.90
52509;DHT22;38420;53.150;6.370;2023-08-08T01:13:21;14.20;99.90
52509;DHT22;38420;53.150;6.370;2023-08-08T01:15:48;13.60;99.90
52509;DHT22;38420;53.150;6.370;2023-08-08T01:18:15;13.50;99.90
52509;DHT22;38420;53.150;6.370;2023-08-08T01:20:42;13.90;99.90
52509;DHT22;38420;53.150;6.370;2023-08-08T01:23:19;14.40;99.90
52509;DHT22;38420;53.150;6.370;2023-08-08T01:25:49;12.80;99.90
52509;DHT22;38420;53.150;6.370;2023-08-08T01:28:15;14.50;99.90
52509;DHT22;38420;53.150;6.370;2023-08-08T01:30:41;13.40;99.90
52509;DHT22;38420;53.150;6.370;2023-08-08T01:33:08;12.80;99.90
52509;DHT22;38420;53.150;6.370;2023-08-08T01:35:38;13.90;99.90
52509;DHT22;38420;53.150;6.370;2023-08-08T01:38:29;13.60;99.90
52509;DHT22;38420;53.150;6.370;2023-08-08T01:40:56;12.80;99.90
52509;DHT22;38420;53.150;6.370;2023-08-08T01:43:24;14.30;99.90
52509;DHT22;38420;53.150;6.370;2023-08-08T01:45:51;14.30;99.90
52509;DHT22;38420;53.150;6.370;2023-08-08T01:48:17;12.90;99.90
52509;DHT22;38420;53.150;6.370;2023-08-08T01:50:43;13.70;99.90
52509;DHT22;38420;53.150;6.370;2023-08-08T01:53:09;13.40;99.90
52509;DHT22;38420;53.150;6.370;2023-08-08T01:55:35;14.30;99.90
52509;DHT22;38420;53.150;6.370;2023-08-08T01:58:00;14.30;99.90
52509;DHT22;38420;53.150;6.370;2023-08-08T02:00:26;14.30;99.90
52509;DHT22;38420;53.150;6.370;2023-08-08T02:02:51;14.20;99.90
52509;DHT22;38420;53.150;6.370;2023-08-08T02:05:17;13.80;99.90
52509;DHT22;38420;53.150;6.370;2023-08-08T02:07:43;13.90;99.90
52509;DHT22;38420;53.150;6.370;2023-08-08T02:10:08;14.40;99.90
52509;DHT22;38420;53.150;6.370;2023-08-08T02:12:34;14.30;99.90
52509;DHT22;38420;53.150;6.370;2023-08-08T02:15:00;14.30;99.90
52509;DHT22;38420;53.150;6.370;2023-08-08T02:17:27;13.80;99.90
52509;DHT22;38420;53.150;6.370;2023-08-08T02:19:52;14.40;99.90
52509;DHT22;38420;53.150;6.370;2023-08-08T02:22:18;14.40;99.90
52509;DHT22;38420;53.150;6.370;2023-08-08T02:24:44;13.10;99.90
52509;DHT22;38420;53.150;6.370;2023-08-08T02:27:11;12.70;99.90
52509;DHT22;38420;53.150;6.370;2023-08-08T02:29:36;13.40;99.90
52509;DHT22;38420;53.150;6.370;2023-08-08T02:32:02;14.10;99.90
52509;DHT22;38420;53.150;6.370;2023-08-08T02:34:28;14.30;99.90
52509;DHT22;38420;53.150;6.370;2023-08-08T02:36:53;12.90;99.90
52509;DHT22;38420;53.150;6.370;2023-08-08T02:39:19;12.50;99.90
52509;DHT22;38420;53.150;6.370;2023-08-08T02:41:45;14.30;99.90
52509;DHT22;38420;53.150;6.370;2023-08-08T02:44:10;14.30;99.90
52509;DHT22;38420;53.150;6.370;2023-08-08T02:46:36;12.80;99.90
52509;DHT22;38420;53.150;6.370;2023-08-08T02:49:04;14.60;99.90
52509;DHT22;38420;53.150;6.370;2023-08-08T02:51:30;14.70;99.90
52509;DHT22;38420;53.150;6.370;2023-08-08T02:53:55;13.60;99.90
52509;DHT22;38420;53.150;6.370;2023-08-08T02:56:21;14.00;99.90
52509;DHT22;38420;53.150;6.370;2023-08-08T02:58:47;14.40;99.90
52509;DHT22;38420;53.150;6.370;2023-08-08T03:01:12;14.60;99.90
52509;DHT22;38420;53.150;6.370;2023-08-08T03:03:41;13.40;99.90
52509;DHT22;38420;53.150;6.370;2023-08-08T03:06:06;13.70;99.90
52509;DHT22;38420;53.150;6.370;2023-08-08T03:08:32;13.90;99.90
52509;DHT22;38420;53.150;6.370;2023-08-08T03:10:57;14.70;99.90
52509;DHT22;38420;53.150;6.370;2023-08-08T03:13:23;13.30;99.90
52509;DHT22;38420;53.150;6.370;2023-08-08T03:15:49;13.30;99.90
52509;DHT22;38420;53.150;6.370;2023-08-08T03:18:14;14.70;99.90
52509;DHT22;38420;53.150;6.370;2023-08-08T03:20:40;14.30;99.90
52509;DHT22;38420;53.150;6.370;2023-08-08T03:23:06;14.40;99.90
52509;DHT22;38420;53.150;6.370;2023-08-08T03:25:31;14.60;99.90
52509;DHT22;38420;53.150;6.370;2023-08-08T03:27:57;12.70;99.90
52509;DHT22;38420;53.150;6.370;2023-08-08T03:30:22;12.90;99.90
52509;DHT22;38420;53.150;6.370;2023-08-08T03:32:48;14.30;99.90
52509;DHT22;38420;53.150;6.370;2023-08-08T03:35:14;14.00;99.90
52509;DHT22;38420;53.150;6.370;2023-08-08T03:37:40;12.70;99.90
52509;DHT22;38420;53.150;6.370;2023-08-08T03:40:07;12.70;99.90
52509;DHT22;38420;53.150;6.370;2023-08-08T03:42:33;13.70;99.90
52509;DHT22;38420;53.150;6.370;2023-08-08T03:44:58;14.30;99.90
52509;DHT22;38420;53.150;6.370;2023-08-08T03:47:24;12.50;99.90
52509;DHT22;38420;53.150;6.370;2023-08-08T03:49:50;14.10;99.90
52509;DHT22;38420;53.150;6.370;2023-08-08T03:52:16;13.90;99.90
52509;DHT22;38420;53.150;6.370;2023-08-08T03:54:43;14.40;99.90
52509;DHT22;38420;53.150;6.370;2023-08-08T03:57:08;12.80;99.90
52509;DHT22;38420;53.150;6.370;2023-08-08T03:59:34;14.30;99.90
52509;DHT22;38420;53.150;6.370;2023-08-08T04:01:59;14.20;99.90
52509;DHT22;38420;53.150;6.370;2023-08-08T04:04:25;12.30;99.90
52509;DHT22;38420;53.150;6.370;2023-08-08T04:06:51;13.20;99.90
52509;DHT22;38420;53.150;6.370;2023-08-08T04:09:16;14.40;99.90
52509;DHT22;38420;53.150;6.370;2023-08-08T04:11:42;12.60;99.90
52509;DHT22;38420;53.150;6.370;2023-08-08T04:14:07;14.50;99.90
52509;DHT22;38420;53.150;6.370;2023-08-08T04:16:33;12.50;99.90
52509;DHT22;38420;53.150;6.370;2023-08-08T04:18:59;14.30;99.90
52509;DHT22;38420;53.150;6.370;2023-08-08T04:21:25;13.60;99.90
52509;DHT22;38420;53.150;6.370;2023-08-08T04:23:52;14.10;99.90
52509;DHT22;38420;53.150;6.370;2023-08-08T04:26:18;13.30;99.90
52509;DHT22;38420;53.150;6.370;2023-08-08T04:28:44;12.40;99.90
52509;DHT22;38420;53.150;6.370;2023-08-08T04:31:09;12.50;99.90
52509;DHT22;38420;53.150;6.370;2023-08-08T04:33:35;14.60;99.90
52509;DHT22;38420;53.150;6.370;2023-08-08T04:36:00;14.60;99.90
52509;DHT22;38420;53.150;6.370;2023-08-08T04:38:26;13.40;99.90
52509;DHT22;38420;53.150;6.370;2023-08-08T04:40:52;13.90;99.90
52509;DHT22;38420;53.150;6.370;2023-08-08T04:43:17;13.70;99.90
52509;DHT22;38420;53.150;6.370;2023-08-08T04:45:43;14.50;99.90
52509;DHT22;38420;53.150;6.370;2023-08-08T04:48:08;12.20;99.90
52509;DHT22;38420;53.150;6.370;2023-08-08T04:50:34;13.90;99.90
52509;DHT22;38420;53.150;6.370;2023-08-08T04:53:00;12.70;99.90
52509;DHT22;38420;53.150;6.370;2023-08-08T04:55:25;12.80;99.90
52509;DHT22;38420;53.150;6.370;2023-08-08T04:57:51;12.20;99.90
52509;DHT22;38420;53.150;6.370;2023-08-08T05:00:17;13.10;99.90
52509;DHT22;38420;53.150;6.370;2023-08-08T05:02:43;13.70;99.90
52509;DHT22;38420;53.150;6.370;2023-08-08T05:05:08;12.50;99.90
52509;DHT22;38420;53.150;6.370;2023-08-08T05:07:34;12.60;99.90
52509;DHT22;38420;53.150;6.370;2023-08-08T05:10:03;12.80;99.90
52509;DHT22;38420;53.150;6.370;2023-08-08T05:12:29;13.90;99.90
52509;DHT22;38420;53.150;6.370;2023-08-08T05:14:54;13.20;99.90
52509;DHT22;38420;53.150;6.370;2023-08-08T05:17:20;14.20;99.90
52509;DHT22;38420;53.150;6.370;2023-08-08T05:19:46;12.10;99.90
52509;DHT22;38420;53.150;6.370;2023-08-08T05:22:11;12.20;99.90
52509;DHT22;38420;53.150;6.370;2023-08-08T05:24:37;12.70;99.90
52509;DHT22;38420;53.150;6.370;2023-08-08T05:27:03;13.00;99.90
52509;DHT22;38420;53.150;6.370;2023-08-08T05:29:29;14.00;99.90
52509;DHT22;38420;53.150;6.370;2023-08-08T05:31:55;13.60;99.90
52509;DHT22;38420;53.150;6.370;2023-08-08T05:34:23;13.60;99.90
52509;DHT22;38420;53.150;6.370;2023-08-08T05:36:48;14.40;99.90
52509;DHT22;38420;53.150;6.370;2023-08-08T05:39:14;12.60;99.90
52509;DHT22;38420;53.150;6.370;2023-08-08T05:41:39;14.50;99.90
52509;DHT22;38420;53.150;6.370;2023-08-08T05:44:05;13.20;99.90
52509;DHT22;38420;53.150;6.370;2023-08-08T05:46:31;13.90;99.90
52509;DHT22;38420;53.150;6.370;2023-08-08T05:48:57;13.90;99.90
52509;DHT22;38420;53.150;6.370;2023-08-08T05:51:22;13.10;99.90
52509;DHT22;38420;53.150;6.370;2023-08-08T05:53:48;13.10;99.90
52509;DHT22;38420;53.150;6.370;2023-08-08T05:56:13;13.40;99.90
52509;DHT22;38420;53.150;6.370;2023-08-08T05:58:39;14.90;99.90
52509;DHT22;38420;53.150;6.370;2023-08-08T06:01:05;13.60;99.90
52509;DHT22;38420;53.150;6.370;2023-08-08T06:03:35;14.60;99.90
52509;DHT22;38420;53.150;6.370;2023-08-08T06:06:03;14.90;99.90
52509;DHT22;38420;53.150;6.370;2023-08-08T06:08:29;13.50;99.90
52509;DHT22;38420;53.150;6.370;2023-08-08T06:10:54;13.50;99.90
52509;DHT22;38420;53.150;6.370;2023-08-08T06:13:20;15.20;99.90
52509;DHT22;38420;53.150;6.370;2023-08-08T06:15:46;15.00;99.90
52509;DHT22;38420;53.150;6.370;2023-08-08T06:18:11;14.20;99.90
52509;DHT22;38420;53.150;6.370;2023-08-08T06:20:37;14.00;99.90
52509;DHT22;38420;53.150;6.370;2023-08-08T06:23:02;14.80;99.90
52509;DHT22;38420;53.150;6.370;2023-08-08T06:25:28;15.00;99.90
52509;DHT22;38420;53.150;6.370;2023-08-08T06:27:54;15.20;99.90
52509;DHT22;38420;53.150;6.370;2023-08-08T06:30:19;14.90;99.90
52509;DHT22;38420;53.150;6.370;2023-08-08T06:32:45;14.50;99.90
52509;DHT22;38420;53.150;6.370;2023-08-08T06:35:10;15.00;99.90
52509;DHT22;38420;53.150;6.370;2023-08-08T06:37:36;15.50;99.90
52509;DHT22;38420;53.150;6.370;2023-08-08T06:40:02;15.60;99.90
52509;DHT22;38420;53.150;6.370;2023-08-08T06:42:28;15.40;99.90
52509;DHT22;38420;53.150;6.370;2023-08-08T06:44:53;14.90;99.90
52509;DHT22;38420;53.150;6.370;2023-08-08T06:47:19;15.60;99.90
52509;DHT22;38420;53.150;6.370;2023-08-08T06:49:45;15.70;99.90
52509;DHT22;38420;53.150;6.370;2023-08-08T06:52:10;15.00;99.90
52509;DHT22;38420;53.150;6.370;2023-08-08T06:54:36;15.80;99.90
52509;DHT22;38420;53.150;6.370;2023-08-08T06:57:01;15.90;99.90
52509;DHT22;38420;53.150;6.370;2023-08-08T06:59:27;15.20;99.90
52509;DHT22;38420;53.150;6.370;2023-08-08T07:01:53;15.80;99.90
52509;DHT22;38420;53.150;6.370;2023-08-08T07:04:19;16.00;99.90
52509;DHT22;38420;53.150;6.370;2023-08-08T07:06:44;16.10;99.90
52509;DHT22;38420;53.150;6.370;2023-08-08T07:09:11;15.90;99.90
52509;DHT22;38420;53.150;6.370;2023-08-08T07:11:39;15.90;99.90
52509;DHT22;38420;53.150;6.370;2023-08-08T07:14:05;16.10;99.90
52509;DHT22;38420;53.150;6.370;2023-08-08T07:16:30;15.80;99.90
52509;DHT22;38420;53.150;6.370;2023-08-08T07:18:56;16.10;99.90
52509;DHT22;38420;53.150;6.370;2023-08-08T07:21:22;16.10;99.90
52509;DHT22;38420;53.150;6.370;2023-08-08T07:23:47;16.50;99.90
52509;DHT22;38420;53.150;6.370;2023-08-08T07:26:13;16.20;99.90
52509;DHT22;38420;53.150;6.370;2023-08-08T07:28:39;16.10;99.90
52509;DHT22;38420;53.150;6.370;2023-08-08T07:31:04;16.40;99.90
52509;DHT22;38420;53.150;6.370;2023-08-08T07:33:30;16.50;99.90
52509;DHT22;38420;53.150;6.370;2023-08-08T07:35:57;16.30;99.90
52509;DHT22;38420;53.150;6.370;2023-08-08T07:38:22;16.50;99.90
52509;DHT22;38420;53.150;6.370;2023-08-08T07:40:48;16.30;99.90
52509;DHT22;38420;53.150;6.370;2023-08-08T07:43:14;16.70;99.90
52509;DHT22;38420;53.150;6.370;2023-08-08T07:45:40;16.80;99.90
52509;DHT22;38420;53.150;6.370;2023-08-08T07:48:06;16.60;99.90
52509;DHT22;38420;53.150;6.370;2023-08-08T07:50:32;16.70;99.90
52509;DHT22;38420;53.150;6.370;2023-08-08T07:52:57;16.70;99.90
52509;DHT22;38420;53.150;6.370;2023-08-08T07:55:23;16.80;99.90
52509;DHT22;38420;53.150;6.370;2023-08-08T07:57:48;16.60;99.90
52509;DHT22;38420;53.150;6.370;2023-08-08T08:00:14;16.50;99.90
52509;DHT22;38420;53.150;6.370;2023-08-08T08:02:44;16.60;99.90
52509;DHT22;38420;53.150;6.370;2023-08-08T08:05:11;16.50;99.90
52509;DHT22;38420;53.150;6.370;2023-08-08T08:07:38;16.80;99.90
52509;DHT22;38420;53.150;6.370;2023-08-08T08:10:06;16.90;99.90
52509;DHT22;38420;53.150;6.370;2023-08-08T08:12:32;16.50;99.90
52509;DHT22;38420;53.150;6.370;2023-08-08T08:14:58;16.70;99.90
52509;DHT22;38420;53.150;6.370;2023-08-08T08:17:24;16.60;99.90
52509;DHT22;38420;53.150;6.370;2023-08-08T08:19:52;16.50;99.90
52509;DHT22;38420;53.150;6.370;2023-08-08T08:22:18;16.50;99.90
52509;DHT22;38420;53.150;6.370;2023-08-08T08:24:44;16.70;99.90
52509;DHT22;38420;53.150;6.370;2023-08-08T08:27:11;16.60;99.90
52509;DHT22;38420;53.150;6.370;2023-08-08T08:29:37;16.40;99.90
52509;DHT22;38420;53.150;6.370;2023-08-08T08:32:03;16.20;99.90
52509;DHT22;38420;53.150;6.370;2023-08-08T08:34:29;16.30;99.90
52509;DHT22;38420;53.150;6.370;2023-08-08T08:36:54;16.60;99.90
52509;DHT22;38420;53.150;6.370;2023-08-08T08:39:20;16.40;99.90
52509;DHT22;38420;53.150;6.370;2023-08-08T08:41:49;16.80;99.90
52509;DHT22;38420;53.150;6.370;2023-08-08T08:44:16;16.80;99.90
52509;DHT22;38420;53.150;6.370;2023-08-08T08:46:42;17.50;99.90
52509;DHT22;38420;53.150;6.370;2023-08-08T08:49:09;18.40;99.90
52509;DHT22;38420;53.150;6.370;2023-08-08T08:51:36;19.10;99.90
52509;DHT22;38420;53.150;6.370;2023-08-08T08:54:02;18.20;99.90
52509;DHT22;38420;53.150;6.370;2023-08-08T08:56:28;18.70;99.90
52509;DHT22;38420;53.150;6.370;2023-08-08T08:58:54;19.30;99.90
52509;DHT22;38420;53.150;6.370;2023-08-08T09:01:21;19.30;99.90
52509;DHT22;38420;53.150;6.370;2023-08-08T09:03:49;19.40;99.90
52509;DHT22;38420;53.150;6.370;2023-08-08T09:06:14;19.20;99.90
52509;DHT22;38420;53.150;6.370;2023-08-08T09:08:41;18.50;99.90
52509;DHT22;38420;53.150;6.370;2023-08-08T09:11:07;18.10;99.90
52509;DHT22;38420;53.150;6.370;2023-08-08T09:13:36;17.60;99.90
52509;DHT22;38420;53.150;6.370;2023-08-08T09:16:05;17.90;99.90
52509;DHT22;38420;53.150;6.370;2023-08-08T09:18:31;18.10;99.90
52509;DHT22;38420;53.150;6.370;2023-08-08T09:20:58;18.40;99.90
52509;DHT22;38420;53.150;6.370;2023-08-08T09:23:24;18.70;99.90
52509;DHT22;38420;53.150;6.370;2023-08-08T09:25:50;18.40;99.90
52509;DHT22;38420;53.150;6.370;2023-08-08T09:28:16;18.50;99.90
52509;DHT22;38420;53.150;6.370;2023-08-08T09:30:42;18.40;99.90
52509;DHT22;38420;53.150;6.370;2023-08-08T09:33:08;18.40;99.90
52509;DHT22;38420;53.150;6.370;2023-08-08T09:35:33;18.40;99.90
52509;DHT22;38420;53.150;6.370;2023-08-08T09:37:59;18.30;99.90
52509;DHT22;38420;53.150;6.370;2023-08-08T09:40:24;18.20;99.90
52509;DHT22;38420;53.150;6.370;2023-08-08T09:42:54;17.90;99.90
52509;DHT22;38420;53.150;6.370;2023-08-08T09:45:20;17.40;99.90
52509;DHT22;38420;53.150;6.370;2023-08-08T09:47:45;17.30;99.90
52509;DHT22;38420;53.150;6.370;2023-08-08T09:50:11;17.20;99.90
52509;DHT22;38420;53.150;6.370;2023-08-08T09:52:37;17.70;99.90
52509;DHT22;38420;53.150;6.370;2023-08-08T09:55:06;17.50;99.90
52509;DHT22;38420;53.150;6.370;2023-08-08T09:57:32;17.40;99.90
52509;DHT22;38420;53.150;6.370;2023-08-08T09:59:58;17.20;99.90
52509;DHT22;38420;53.150;6.370;2023-08-08T10:02:24;17.30;99.90
52509;DHT22;38420;53.150;6.370;2023-08-08T10:04:50;17.40;99.90
52509;DHT22;38420;53.150;6.370;2023-08-08T10:07:17;17.30;99.90
52509;DHT22;38420;53.150;6.370;2023-08-08T10:09:43;16.90;99.90
52509;DHT22;38420;53.150;6.370;2023-08-08T10:12:11;16.80;99.90
52509;DHT22;38420;53.150;6.370;2023-08-08T10:14:37;16.80;99.90
52509;DHT22;38420;53.150;6.370;2023-08-08T10:17:04;16.80;99.90
52509;DHT22;38420;53.150;6.370;2023-08-08T10:19:30;17.00;99.90
52509;DHT22;38420;53.150;6.370;2023-08-08T10:21:58;17.20;99.90
52509;DHT22;38420;53.150;6.370;2023-08-08T10:24:23;17.50;99.90
52509;DHT22;38420;53.150;6.370;2023-08-08T10:26:58;17.50;99.90
52509;DHT22;38420;53.150;6.370;2023-08-08T10:29:27;17.20;99.90
52509;DHT22;38420;53.150;6.370;2023-08-08T10:32:00;17.10;99.90
52509;DHT22;38420;53.150;6.370;2023-08-08T10:34:44;17.30;99.90
52509;DHT22;38420;53.150;6.370;2023-08-08T10:37:17;17.50;99.90
52509;DHT22;38420;53.150;6.370;2023-08-08T10:39:58;17.70;99.90
52509;DHT22;38420;53.150;6.370;2023-08-08T10:42:24;17.80;99.90
52509;DHT22;38420;53.150;6.370;2023-08-08T10:44:55;17.50;99.90
52509;DHT22;38420;53.150;6.370;2023-08-08T10:47:34;17.40;99.90
52509;DHT22;38420;53.150;6.370;2023-08-08T10:50:08;17.60;99.90
52509;DHT22;38420;53.150;6.370;2023-08-08T10:55:18;17.90;99.90
52509;DHT22;38420;53.150;6.370;2023-08-08T10:58:07;18.10;99.90
52509;DHT22;38420;53.150;6.370;2023-08-08T11:00:36;18.30;99.90
52509;DHT22;38420;53.150;6.370;2023-08-08T11:03:03;18.20;99.90
52509;DHT22;38420;53.150;6.370;2023-08-08T11:05:33;18.10;99.90
52509;DHT22;38420;53.150;6.370;2023-08-08T11:08:00;18.00;99.90
52509;DHT22;38420;53.150;6.370;2023-08-08T11:10:26;18.00;99.90
52509;DHT22;38420;53.150;6.370;2023-08-08T11:13:02;17.90;99.90
52509;DHT22;38420;53.150;6.370;2023-08-08T11:15:29;18.00;99.90
52509;DHT22;38420;53.150;6.370;2023-08-08T11:17:55;17.90;99.90
52509;DHT22;38420;53.150;6.370;2023-08-08T11:20:22;18.00;99.90
52509;DHT22;38420;53.150;6.370;2023-08-08T11:22:55;18.00;99.90
52509;DHT22;38420;53.150;6.370;2023-08-08T11:25:22;18.20;99.90
52509;DHT22;38420;53.150;6.370;2023-08-08T11:27:54;18.10;99.90
52509;DHT22;38420;53.150;6.370;2023-08-08T11:30:21;18.10;99.90
52509;DHT22;38420;53.150;6.370;2023-08-08T11:32:48;18.20;99.90
52509;DHT22;38420;53.150;6.370;2023-08-08T11:35:24;18.30;99.90
52509;DHT22;38420;53.150;6.370;2023-08-08T11:37:51;18.40;99.90
52509;DHT22;38420;53.150;6.370;2023-08-08T11:40:18;18.50;99.90
52509;DHT22;38420;53.150;6.370;2023-08-08T11:42:45;18.20;99.90
52509;DHT22;38420;53.150;6.370;2023-08-08T11:45:14;18.00;99.90
52509;DHT22;38420;53.150;6.370;2023-08-08T11:47:40;18.00;99.90
52509;DHT22;38420;53.150;6.370;2023-08-08T11:50:07;18.10;99.90
52509;DHT22;38420;53.150;6.370;2023-08-08T11:52:35;18.10;99.90
52509;DHT22;38420;53.150;6.370;2023-08-08T11:55:01;18.20;99.90
52509;DHT22;38420;53.150;6.370;2023-08-08T11:57:27;18.20;99.90
52509;DHT22;38420;53.150;6.370;2023-08-08T11:59:54;18.10;99.90
52509;DHT22;38420;53.150;6.370;2023-08-08T12:02:19;18.20;99.90
52509;DHT22;38420;53.150;6.370;2023-08-08T12:04:45;18.40;99.90
52509;DHT22;38420;53.150;6.370;2023-08-08T12:07:11;18.30;99.90
52509;DHT22;38420;53.150;6.370;2023-08-08T12:09:37;18.00;99.90
52509;DHT22;38420;53.150;6.370;2023-08-08T12:12:03;17.80;99.90
52509;DHT22;38420;53.150;6.370;2023-08-08T12:14:29;17.70;99.90
52509;DHT22;38420;53.150;6.370;2023-08-08T12:16:55;17.60;99.90
52509;DHT22;38420;53.150;6.370;2023-08-08T12:19:25;17.60;99.90
52509;DHT22;38420;53.150;6.370;2023-08-08T12:21:53;17.60;99.90
52509;DHT22;38420;53.150;6.370;2023-08-08T12:24:19;17.60;99.90
52509;DHT22;38420;53.150;6.370;2023-08-08T12:26:44;17.50;99.90
52509;DHT22;38420;53.150;6.370;2023-08-08T12:29:10;17.40;99.90
52509;DHT22;38420;53.150;6.370;2023-08-08T12:31:37;17.20;99.90
52509;DHT22;38420;53.150;6.370;2023-08-08T12:34:03;17.30;99.90
52509;DHT22;38420;53.150;6.370;2023-08-08T12:36:30;17.50;99.90
52509;DHT22;38420;53.150;6.370;2023-08-08T12:38:55;17.60;99.90
52509;DHT22;38420;53.150;6.370;2023-08-08T12:41:22;17.60;99.90
52509;DHT22;38420;53.150;6.370;2023-08-08T12:43:47;17.60;99.90
52509;DHT22;38420;53.150;6.370;2023-08-08T12:46:13;17.80;99.90
52509;DHT22;38420;53.150;6.370;2023-08-08T12:48:39;17.80;99.90
52509;DHT22;38420;53.150;6.370;2023-08-08T12:51:04;17.80;99.90
52509;DHT22;38420;53.150;6.370;2023-08-08T12:53:33;18.00;99.90
52509;DHT22;38420;53.150;6.370;2023-08-08T12:55:59;18.10;99.90
52509;DHT22;38420;53.150;6.370;2023-08-08T12:58:25;18.10;99.90
52509;DHT22;38420;53.150;6.370;2023-08-08T13:00:50;18.20;99.90
52509;DHT22;38420;53.150;6.370;2023-08-08T13:03:16;18.20;99.90
52509;DHT22;38420;53.150;6.370;2023-08-08T13:05:42;18.30;99.90
52509;DHT22;38420;53.150;6.370;2023-08-08T13:08:08;18.40;99.90
52509;DHT22;38420;53.150;6.370;2023-08-08T13:10:35;18.30;99.90
52509;DHT22;38420;53.150;6.370;2023-08-08T13:13:01;18.30;99.90
52509;DHT22;38420;53.150;6.370;2023-08-08T13:15:27;18.30;99.90
52509;DHT22;38420;53.150;6.370;2023-08-08T13:17:52;18.30;99.90
52509;DHT22;38420;53.150;6.370;2023-08-08T13:20:18;18.20;99.90
52509;DHT22;38420;53.150;6.370;2023-08-08T13:22:44;18.00;99.90
52509;DHT22;38420;53.150;6.370;2023-08-08T13:25:09;18.00;99.90
52509;DHT22;38420;53.150;6.370;2023-08-08T13:27:35;18.20;99.90
52509;DHT22;38420;53.150;6.370;2023-08-08T13:30:01;18.20;99.90
52509;DHT22;38420;53.150;6.370;2023-08-08T13:32:27;18.30;99.90
52509;DHT22;38420;53.150;6.370;2023-08-08T13:34:53;18.30;99.90
52509;DHT22;38420;53.150;6.370;2023-08-08T13:37:19;18.10;99.90
52509;DHT22;38420;53.150;6.370;2023-08-08T13:39:44;18.00;99.90
52509;DHT22;38420;53.150;6.370;2023-08-08T13:42:10;17.80;99.90
52509;DHT22;38420;53.150;6.370;2023-08-08T13:44:36;17.70;99.90
52509;DHT22;38420;53.150;6.370;2023-08-08T13:47:02;17.60;99.90
52509;DHT22;38420;53.150;6.370;2023-08-08T13:49:27;17.50;99.90
52509;DHT22;38420;53.150;6.370;2023-08-08T13:51:53;17.40;99.90
52509;DHT22;38420;53.150;6.370;2023-08-08T13:54:20;17.30;99.90
52509;DHT22;38420;53.150;6.370;2023-08-08T13:56:46;17.20;99.90
52509;DHT22;38420;53.150;6.370;2023-08-08T13:59:11;17.30;99.90
52509;DHT22;38420;53.150;6.370;2023-08-08T14:01:37;17.40;99.90
52509;DHT22;38420;53.150;6.370;2023-08-08T14:04:03;17.40;99.90
52509;DHT22;38420;53.150;6.370;2023-08-08T14:06:29;17.40;99.90
52509;DHT22;38420;53.150;6.370;2023-08-08T14:08:56;17.40;99.90
52509;DHT22;38420;53.150;6.370;2023-08-08T14:11:21;17.30;99.90
52509;DHT22;38420;53.150;6.370;2023-08-08T14:13:47;17.30;99.90
52509;DHT22;38420;53.150;6.370;2023-08-08T14:16:13;17.30;99.90
52509;DHT22;38420;53.150;6.370;2023-08-08T14:18:38;17.30;99.90
52509;DHT22;38420;53.150;6.370;2023-08-08T14:21:04;17.40;99.90
52509;DHT22;38420;53.150;6.370;2023-08-08T14:23:31;17.60;99.90
52509;DHT22;38420;53.150;6.370;2023-08-08T14:25:56;17.80;99.90
52509;DHT22;38420;53.150;6.370;2023-08-08T14:28:22;18.00;99.90
52509;DHT22;38420;53.150;6.370;2023-08-08T14:30:48;17.90;99.90
52509;DHT22;38420;53.150;6.370;2023-08-08T14:33:15;17.70;99.90
52509;DHT22;38420;53.150;6.370;2023-08-08T14:35:40;17.70;99.90
52509;DHT22;38420;53.150;6.370;2023-08-08T14:38:06;17.60;99.90
52509;DHT22;38420;53.150;6.370;2023-08-08T14:40:32;17.50;99.90
52509;DHT22;38420;53.150;6.370;2023-08-08T14:42:58;17.30;99.90
52509;DHT22;38420;53.150;6.370;2023-08-08T14:45:24;17.30;99.90
52509;DHT22;38420;53.150;6.370;2023-08-08T14:47:50;17.30;99.90
52509;DHT22;38420;53.150;6.370;2023-08-08T14:50:16;17.30;99.90
52509;DHT22;38420;53.150;6.370;2023-08-08T14:52:42;17.20;99.90
52509;DHT22;38420;53.150;6.370;2023-08-08T14:55:08;17.20;99.90
52509;DHT22;38420;53.150;6.370;2023-08-08T14:57:34;17.20;99.90
52509;DHT22;38420;53.150;6.370;2023-08-08T15:00:00;17.30;99.90
52509;DHT22;38420;53.150;6.370;2023-08-08T15:02:29;17.30;99.90
52509;DHT22;38420;53.150;6.370;2023-08-08T15:04:55;17.40;99.90
52509;DHT22;38420;53.150;6.370;2023-08-08T15:07:20;17.50;99.90
52509;DHT22;38420;53.150;6.370;2023-08-08T15:09:46;17.50;99.90
52509;DHT22;38420;53.150;6.370;2023-08-08T15:12:15;17.60;99.90
52509;DHT22;38420;53.150;6.370;2023-08-08T15:14:41;17.60;99.90
52509;DHT22;38420;53.150;6.370;2023-08-08T15:17:07;17.60;99.90
52509;DHT22;38420;53.150;6.370;2023-08-08T15:19:32;17.60;99.90
52509;DHT22;38420;53.150;6.370;2023-08-08T15:21:58;17.60;99.90
52509;DHT22;38420;53.150;6.370;2023-08-08T15:24:24;17.70;99.90
52509;DHT22;38420;53.150;6.370;2023-08-08T15:26:49;17.40;99.90
52509;DHT22;38420;53.150;6.370;2023-08-08T15:29:15;17.20;99.90